Time;durP1;ratioP1;P1;durP2;ratioP2;P2;SDS_P1;SDS_P2;PMS_P1;PMS_P2;Temp;Humidity;BMP_temperature;BMP_pressure;BME280_temperature;BME280_humidity;BME280_pressure;Samples;Min_cycle;Max_cycle;Signal;HPM_P1;HPM_P2
2023/10/27 00:00:41;;;;;;;9.43;1.70;;;13.10;99.90;;;;;;5098926;28;20483;-80
2023/10/27 00:03:07;;;;;;;9.32;2.10;;;13.00;99.90;;;;;;5107143;28;20035;-81
2023/10/27 00:05:32;;;;;;;8.70;1.80;;;13.00;99.90;;;;;;5105587;28;20020;-82
2023/10/27 00:07:58;;;;;;;4.88;1.40;;;13.00;99.90;;;;;;5100300;28;20020;-81
2023/10/27 00:10:25;;;;;;;6.68;1.75;;;13.00;99.90;;;;;;5110981;28;20110;-82
2023/10/27 00:12:51;;;;;;;8.70;2.17;;;13.00;99.90;;;;;;5100118;28;20020;-82
2023/10/27 00:15:17;;;;;;;5.82;1.77;;;13.10;99.90;;;;;;5091836;28;20049;-82
2023/10/27 00:17:42;;;;;;;8.13;1.55;;;13.00;99.90;;;;;;5084308;28;20239;-82
2023/10/27 00:20:09;;;;;;;7.28;1.70;;;13.00;99.90;;;;;;5094947;28;20154;-82
2023/10/27 00:22:35;;;;;;;8.10;1.70;;;13.00;99.90;;;;;;5094419;28;20031;-80
2023/10/27 00:25:01;;;;;;;5.90;1.63;;;13.00;99.90;;;;;;5094623;28;20078;-81
2023/10/27 00:27:27;;;;;;;6.72;1.30;;;12.90;99.90;;;;;;5095287;28;20048;-81
2023/10/27 00:29:53;;;;;;;6.45;1.20;;;13.00;99.90;;;;;;5095831;28;20063;-81
2023/10/27 00:32:18;;;;;;;8.57;1.30;;;12.90;99.90;;;;;;5084718;28;20078;-81
2023/10/27 00:34:44;;;;;;;5.75;1.25;;;12.90;99.90;;;;;;5086771;28;20036;-80
2023/10/27 00:37:09;;;;;;;5.38;1.38;;;12.90;99.90;;;;;;5096299;28;20035;-81
2023/10/27 00:39:35;;;;;;;4.82;1.13;;;12.90;99.90;;;;;;5094053;28;20582;-80
2023/10/27 00:42:01;;;;;;;7.55;1.83;;;12.80;99.90;;;;;;5106055;28;20024;-81
2023/10/27 00:44:26;;;;;;;7.40;1.15;;;12.80;99.90;;;;;;5115118;28;20031;-82
2023/10/27 00:46:53;;;;;;;7.78;1.40;;;12.80;99.90;;;;;;5105380;28;20024;-84
2023/10/27 00:49:19;;;;;;;6.80;1.20;;;12.80;99.90;;;;;;5077211;28;20044;-83
2023/10/27 00:51:46;;;;;;;3.35;0.85;;;12.80;99.90;;;;;;5074284;28;20025;-81
2023/10/27 00:54:13;;;;;;;5.07;1.08;;;12.70;99.90;;;;;;5073987;28;20036;-84
2023/10/27 00:56:39;;;;;;;4.93;1.20;;;12.70;99.90;;;;;;5087936;28;20115;-83
2023/10/27 00:59:06;;;;;;;6.43;1.20;;;12.70;99.90;;;;;;5094323;28;20031;-84
2023/10/27 01:01:32;;;;;;;3.60;0.85;;;12.70;99.90;;;;;;5093700;28;20036;-82
2023/10/27 01:03:58;;;;;;;3.65;0.95;;;12.70;99.90;;;;;;5095276;28;20479;-84
2023/10/27 01:06:24;;;;;;;5.80;1.00;;;12.70;99.90;;;;;;5094588;28;20024;-83
2023/10/27 01:08:50;;;;;;;4.93;1.13;;;12.60;99.90;;;;;;5094360;28;20427;-83
2023/10/27 01:11:18;;;;;;;4.78;0.90;;;12.60;99.90;;;;;;5094994;28;20111;-81
2023/10/27 01:13:44;;;;;;;5.03;0.90;;;12.60;99.90;;;;;;5094995;28;20054;-81
2023/10/27 01:16:09;;;;;;;8.85;1.10;;;12.60;99.90;;;;;;5094853;28;20024;-82
2023/10/27 01:18:35;;;;;;;2.78;1.05;;;12.70;99.90;;;;;;5093709;28;20024;-81
2023/10/27 01:21:01;;;;;;;9.68;1.13;;;12.60;99.90;;;;;;5093966;28;20028;-81
2023/10/27 01:23:26;;;;;;;4.85;0.98;;;12.70;99.90;;;;;;5094373;28;20059;-82
2023/10/27 01:25:52;;;;;;;9.38;1.00;;;12.70;99.90;;;;;;5094023;28;20377;-81
2023/10/27 01:28:18;;;;;;;4.10;1.00;;;12.70;99.90;;;;;;5093883;28;20077;-81
2023/10/27 01:30:43;;;;;;;3.78;0.90;;;12.60;99.90;;;;;;5094235;28;20062;-81
2023/10/27 01:33:09;;;;;;;4.00;1.00;;;12.60;99.90;;;;;;5094628;28;20452;-81
2023/10/27 01:35:35;;;;;;;4.97;0.90;;;12.60;99.90;;;;;;5092973;28;20471;-80
2023/10/27 01:38:01;;;;;;;4.93;0.98;;;12.60;99.90;;;;;;5093837;28;20457;-82
2023/10/27 01:40:27;;;;;;;4.55;0.90;;;12.50;99.90;;;;;;5093435;28;20028;-82
2023/10/27 01:42:53;;;;;;;3.25;0.90;;;12.50;99.90;;;;;;5093906;28;20028;-80
2023/10/27 01:45:19;;;;;;;3.30;0.80;;;12.50;99.90;;;;;;5093231;28;20024;-80
2023/10/27 01:47:44;;;;;;;3.42;0.90;;;12.50;99.90;;;;;;5093125;28;20036;-80
2023/10/27 01:50:10;;;;;;;2.78;1.15;;;12.50;99.90;;;;;;5093143;28;20110;-82
2023/10/27 01:52:35;;;;;;;6.32;1.13;;;12.50;99.90;;;;;;5092830;28;20027;-83
2023/10/27 01:55:01;;;;;;;6.47;1.00;;;12.40;99.90;;;;;;5094331;28;20032;-82
2023/10/27 01:57:27;;;;;;;5.72;1.02;;;12.40;99.90;;;;;;5093868;28;20024;-82
2023/10/27 01:59:52;;;;;;;6.43;1.00;;;12.40;99.90;;;;;;5094525;28;20056;-83
2023/10/27 02:02:19;;;;;;;3.13;0.90;;;12.40;99.90;;;;;;5093241;28;20423;-82
2023/10/27 02:04:44;;;;;;;5.55;1.02;;;12.40;99.90;;;;;;5092980;28;20122;-82
2023/10/27 02:07:10;;;;;;;5.15;0.98;;;12.40;99.90;;;;;;5093291;28;20452;-82
2023/10/27 02:09:36;;;;;;;4.45;1.08;;;12.40;99.90;;;;;;5092721;28;20028;-82
2023/10/27 02:12:03;;;;;;;4.45;0.95;;;12.40;99.90;;;;;;5094127;28;20024;-83
2023/10/27 02:14:28;;;;;;;6.18;1.77;;;12.40;99.90;;;;;;5092599;28;20201;-82
2023/10/27 02:16:54;;;;;;;4.07;0.90;;;12.40;99.90;;;;;;5094271;28;20055;-81
2023/10/27 02:19:20;;;;;;;3.50;0.90;;;12.40;99.90;;;;;;5094184;28;20028;-81
2023/10/27 02:21:48;;;;;;;1.65;0.65;;;12.40;99.90;;;;;;5092444;28;20028;-81
2023/10/27 02:24:14;;;;;;;3.30;0.80;;;12.40;99.90;;;;;;5093361;28;20036;-81
2023/10/27 02:26:39;;;;;;;6.40;1.00;;;12.30;99.90;;;;;;5092602;28;20024;-80
2023/10/27 02:29:06;;;;;;;7.57;1.20;;;12.30;99.90;;;;;;5093880;28;20035;-80
2023/10/27 02:31:31;;;;;;;2.92;0.80;;;12.30;99.90;;;;;;5092478;28;20024;-80
2023/10/27 02:33:57;;;;;;;1.83;0.65;;;12.30;99.90;;;;;;5092920;28;20032;-80
2023/10/27 02:36:23;;;;;;;4.55;1.10;;;12.30;99.90;;;;;;5092648;28;20051;-81
2023/10/27 02:38:48;;;;;;;5.10;0.95;;;12.20;99.90;;;;;;5092815;28;20129;-81
2023/10/27 02:41:14;;;;;;;3.17;0.90;;;12.20;99.90;;;;;;5092911;28;20059;-81
2023/10/27 02:43:40;;;;;;;3.88;1.05;;;12.20;99.90;;;;;;5092232;28;20028;-81
2023/10/27 02:46:05;;;;;;;2.55;1.10;;;12.20;99.90;;;;;;5093083;28;20036;-81
2023/10/27 02:48:31;;;;;;;1.70;0.80;;;12.20;99.90;;;;;;5092543;28;20036;-81
2023/10/27 02:50:57;;;;;;;6.82;1.00;;;12.20;99.90;;;;;;5093818;28;20027;-81
2023/10/27 02:53:23;;;;;;;4.80;1.27;;;12.20;99.90;;;;;;5092731;28;20032;-81
2023/10/27 02:55:49;;;;;;;3.65;0.77;;;12.20;99.90;;;;;;5093386;28;20028;-81
2023/10/27 02:58:15;;;;;;;2.15;1.08;;;12.20;99.90;;;;;;5092743;28;20024;-82
2023/10/27 03:00:44;;;;;;;2.63;0.70;;;12.20;99.90;;;;;;5093371;28;20467;-81
2023/10/27 03:03:10;;;;;;;2.53;1.25;;;12.20;99.90;;;;;;5092988;28;20031;-81
2023/10/27 03:05:36;;;;;;;5.75;0.90;;;12.20;99.90;;;;;;5092118;28;20028;-81
2023/10/27 03:08:03;;;;;;;3.80;0.95;;;12.20;99.90;;;;;;5092816;28;20089;-81
2023/10/27 03:10:28;;;;;;;3.70;1.00;;;12.20;99.90;;;;;;5092974;28;20372;-81
2023/10/27 03:12:55;;;;;;;6.13;0.93;;;12.20;99.90;;;;;;5093531;28;20024;-81
2023/10/27 03:15:21;;;;;;;2.80;1.00;;;12.20;99.90;;;;;;5096446;28;20068;-81
2023/10/27 03:17:46;;;;;;;5.45;1.10;;;12.20;99.90;;;;;;5096860;28;20043;-81
2023/10/27 03:20:12;;;;;;;6.35;0.98;;;12.20;99.90;;;;;;5096318;28;20024;-82
2023/10/27 03:22:38;;;;;;;2.70;0.90;;;12.20;99.90;;;;;;5095718;28;20486;-81
2023/10/27 03:25:04;;;;;;;2.78;1.15;;;12.20;99.90;;;;;;5096275;28;20130;-81
2023/10/27 03:27:32;;;;;;;3.38;0.80;;;12.20;99.90;;;;;;5095953;28;20389;-81
2023/10/27 03:29:58;;;;;;;3.47;0.82;;;12.20;99.90;;;;;;5096569;28;20453;-82
2023/10/27 03:32:24;;;;;;;2.08;0.70;;;12.20;99.90;;;;;;5097260;28;20028;-81
2023/10/27 03:34:49;;;;;;;3.78;0.93;;;12.20;99.90;;;;;;5096288;28;20039;-81
2023/10/27 03:37:15;;;;;;;5.63;0.70;;;12.20;99.90;;;;;;5096021;28;20044;-81
2023/10/27 03:39:42;;;;;;;4.75;0.90;;;12.20;99.90;;;;;;5095570;28;20028;-81
2023/10/27 03:42:08;;;;;;;6.43;1.33;;;12.20;99.90;;;;;;5095986;28;20480;-81
2023/10/27 03:44:34;;;;;;;3.58;0.80;;;12.10;99.90;;;;;;5095091;28;20035;-82
2023/10/27 03:47:00;;;;;;;2.92;0.80;;;12.20;99.90;;;;;;5095743;28;20059;-81
2023/10/27 03:49:27;;;;;;;4.63;0.90;;;12.20;99.90;;;;;;5096710;28;20027;-82
2023/10/27 03:51:53;;;;;;;3.40;0.90;;;12.20;99.90;;;;;;5095488;28;20027;-81
2023/10/27 03:54:19;;;;;;;4.53;1.50;;;12.20;99.90;;;;;;5096754;28;20036;-81
2023/10/27 03:56:45;;;;;;;3.88;1.02;;;12.10;99.90;;;;;;5096170;28;20039;-81
2023/10/27 03:59:10;;;;;;;8.85;1.65;;;12.20;99.90;;;;;;5095620;28;20020;-81
2023/10/27 04:01:38;;;;;;;2.05;0.85;;;12.10;99.90;;;;;;5094871;28;20027;-81
2023/10/27 04:04:03;;;;;;;3.78;0.90;;;12.20;99.90;;;;;;5095445;28;20083;-82
2023/10/27 04:06:29;;;;;;;3.08;0.88;;;12.20;99.90;;;;;;5094926;28;20077;-81
2023/10/27 04:08:55;;;;;;;4.85;0.70;;;12.20;99.90;;;;;;5096221;28;20028;-82
2023/10/27 04:11:20;;;;;;;5.07;1.00;;;12.20;99.90;;;;;;5096405;28;20035;-83
2023/10/27 04:13:46;;;;;;;5.05;0.80;;;12.10;99.90;;;;;;5095059;28;20032;-82
2023/10/27 04:16:12;;;;;;;4.47;0.90;;;12.20;99.90;;;;;;5096558;28;20077;-82
2023/10/27 04:18:38;;;;;;;5.00;0.95;;;12.10;99.90;;;;;;5094719;28;20059;-82
2023/10/27 04:21:04;;;;;;;4.70;0.98;;;12.10;99.90;;;;;;5095036;28;20452;-81
2023/10/27 04:23:31;;;;;;;5.55;0.80;;;12.10;99.90;;;;;;5094755;28;20097;-80
2023/10/27 04:25:56;;;;;;;3.72;0.70;;;12.10;99.90;;;;;;5094924;28;20030;-81
2023/10/27 04:28:22;;;;;;;3.60;0.77;;;12.10;99.90;;;;;;5095040;28;20028;-82
2023/10/27 04:30:48;;;;;;;4.18;1.13;;;12.10;99.90;;;;;;5094471;28;20024;-82
2023/10/27 04:33:15;;;;;;;3.00;0.60;;;12.00;99.90;;;;;;5094851;28;20395;-82
2023/10/27 04:35:42;;;;;;;3.97;0.55;;;12.10;99.90;;;;;;5094875;28;20024;-83
2023/10/27 04:38:08;;;;;;;3.20;0.80;;;12.10;99.90;;;;;;5095118;28;20172;-82
2023/10/27 04:40:34;;;;;;;5.45;0.90;;;12.00;99.90;;;;;;5094082;28;20071;-82
2023/10/27 04:43:00;;;;;;;6.20;1.00;;;12.00;99.90;;;;;;5094538;28;20104;-82
2023/10/27 04:45:26;;;;;;;2.40;0.68;;;12.00;99.90;;;;;;5094482;28;20115;-82
2023/10/27 04:47:53;;;;;;;4.90;0.95;;;12.00;99.90;;;;;;5095071;28;20055;-82
2023/10/27 04:50:19;;;;;;;4.65;0.98;;;12.00;99.90;;;;;;5094649;28;20528;-82
2023/10/27 04:52:45;;;;;;;3.60;0.85;;;12.10;99.90;;;;;;5094891;28;20104;-82
2023/10/27 04:55:11;;;;;;;6.50;1.30;;;12.10;99.90;;;;;;5094412;28;20156;-82
2023/10/27 04:57:37;;;;;;;5.88;0.80;;;12.10;99.90;;;;;;5093940;28;20028;-82
2023/10/27 05:00:08;;;;;;;3.42;0.73;;;12.00;99.90;;;;;;5094431;28;20024;-81
2023/10/27 05:02:33;;;;;;;3.45;0.88;;;12.00;99.90;;;;;;5093985;28;20052;-82
2023/10/27 05:04:59;;;;;;;3.10;0.90;;;12.00;99.90;;;;;;5095054;28;20035;-82
2023/10/27 05:07:25;;;;;;;4.38;1.20;;;12.00;99.90;;;;;;5094287;28;20024;-82
2023/10/27 05:09:51;;;;;;;4.28;0.80;;;12.00;99.90;;;;;;5093594;28;20024;-82
2023/10/27 05:12:17;;;;;;;4.25;1.00;;;12.00;99.90;;;;;;5094209;28;20024;-82
2023/10/27 05:14:43;;;;;;;5.60;0.85;;;12.00;99.90;;;;;;5094543;28;20072;-81
2023/10/27 05:17:08;;;;;;;3.15;0.70;;;12.00;99.90;;;;;;5095151;28;20024;-82
2023/10/27 05:19:34;;;;;;;3.90;0.95;;;12.00;99.90;;;;;;5093696;28;20116;-81
2023/10/27 05:22:04;;;;;;;3.10;0.65;;;12.00;99.90;;;;;;5094163;28;20503;-82
2023/10/27 05:24:30;;;;;;;3.83;0.70;;;11.90;99.90;;;;;;5091081;28;20032;-81
2023/10/27 05:26:56;;;;;;;2.00;0.60;;;11.90;99.90;;;;;;5072914;28;20040;-82
2023/10/27 05:29:21;;;;;;;1.00;0.30;;;11.90;99.90;;;;;;5073777;28;20020;-82
2023/10/27 05:31:47;;;;;;;1.67;0.40;;;11.80;99.90;;;;;;5072998;28;20021;-81
2023/10/27 05:34:12;;;;;;;1.83;0.50;;;11.80;99.90;;;;;;5073431;28;20032;-82
2023/10/27 05:36:38;;;;;;;4.15;0.70;;;11.70;99.90;;;;;;5073349;28;20072;-81
2023/10/27 05:39:04;;;;;;;2.05;0.43;;;11.70;99.90;;;;;;5073201;28;20031;-82
2023/10/27 05:41:29;;;;;;;3.15;0.40;;;11.70;99.90;;;;;;5073313;28;20149;-82
2023/10/27 05:43:55;;;;;;;2.15;0.47;;;11.70;99.90;;;;;;5072696;28;20072;-82
2023/10/27 05:46:21;;;;;;;1.05;0.57;;;11.70;99.90;;;;;;5073940;28;20032;-81
2023/10/27 05:48:47;;;;;;;0.85;0.60;;;11.70;99.90;;;;;;5072710;28;20036;-82
2023/10/27 05:51:12;;;;;;;4.22;0.50;;;11.60;99.90;;;;;;5073211;28;20033;-81
2023/10/27 05:53:38;;;;;;;2.85;0.50;;;11.60;99.90;;;;;;5072271;28;20059;-81
2023/10/27 05:56:04;;;;;;;1.38;0.70;;;11.60;99.90;;;;;;5073039;28;20025;-80
2023/10/27 05:58:33;;;;;;;1.17;0.50;;;11.60;99.90;;;;;;5072963;28;20141;-82
2023/10/27 06:01:00;;;;;;;2.83;0.60;;;11.50;99.90;;;;;;5072531;28;20024;-81
2023/10/27 06:03:25;;;;;;;1.35;0.40;;;11.50;99.90;;;;;;5074092;28;20386;-81
2023/10/27 06:05:54;;;;;;;1.80;0.90;;;11.50;99.90;;;;;;5072585;28;20021;-81
2023/10/27 06:08:19;;;;;;;1.40;0.55;;;11.60;99.90;;;;;;5072957;28;20028;-82
2023/10/27 06:10:45;;;;;;;1.85;0.55;;;11.50;99.90;;;;;;5072399;28;20031;-82
2023/10/27 06:13:12;;;;;;;3.35;0.70;;;11.60;99.90;;;;;;5072835;28;20032;-82
2023/10/27 06:15:38;;;;;;;3.60;0.80;;;11.50;99.90;;;;;;5072236;28;20107;-83
2023/10/27 06:18:04;;;;;;;1.90;0.82;;;11.50;99.90;;;;;;5073065;28;20071;-83
2023/10/27 06:20:29;;;;;;;2.15;0.68;;;11.60;99.90;;;;;;5073831;28;20477;-83
2023/10/27 06:22:55;;;;;;;2.53;0.45;;;11.50;99.90;;;;;;5073354;28;20025;-82
2023/10/27 06:25:25;;;;;;;0.85;0.50;;;11.60;99.90;;;;;;5072850;28;20044;-83
2023/10/27 06:27:54;;;;;;;1.67;0.52;;;11.60;99.90;;;;;;5073431;28;20021;-82
2023/10/27 06:30:20;;;;;;;1.10;0.60;;;11.60;99.90;;;;;;5072683;28;20025;-82
2023/10/27 06:32:47;;;;;;;1.98;0.40;;;11.60;99.90;;;;;;5083066;28;20030;-82
2023/10/27 06:35:13;;;;;;;1.73;0.43;;;11.60;99.90;;;;;;5093834;28;20481;-82
2023/10/27 06:37:38;;;;;;;3.30;0.85;;;11.70;99.90;;;;;;5092296;28;20044;-81
2023/10/27 06:40:05;;;;;;;1.30;0.60;;;11.70;99.90;;;;;;5093950;28;20035;-81
2023/10/27 06:42:30;;;;;;;1.73;0.50;;;11.70;99.90;;;;;;5093781;28;20024;-80
2023/10/27 06:44:56;;;;;;;1.45;0.60;;;11.70;99.90;;;;;;5092103;28;20028;-82
2023/10/27 06:47:22;;;;;;;0.95;0.40;;;11.80;99.90;;;;;;5092906;28;20032;-82
2023/10/27 06:49:47;;;;;;;3.83;0.43;;;11.80;99.90;;;;;;5095878;28;20110;-81
2023/10/27 06:52:13;;;;;;;1.45;0.57;;;11.80;99.90;;;;;;5096499;28;20028;-82
2023/10/27 06:54:40;;;;;;;1.65;0.40;;;11.80;99.90;;;;;;5096369;28;20528;-79
2023/10/27 06:57:09;;;;;;;1.58;0.45;;;11.90;99.90;;;;;;5096709;28;20032;-82
2023/10/27 06:59:35;;;;;;;1.48;0.30;;;11.90;99.90;;;;;;5097610;28;20025;-82
2023/10/27 07:02:01;;;;;;;0.70;0.43;;;11.90;99.90;;;;;;5095960;28;20028;-83
2023/10/27 07:04:26;;;;;;;3.05;0.80;;;11.90;99.90;;;;;;5096583;28;20028;-83
2023/10/27 07:06:52;;;;;;;1.05;0.32;;;11.90;99.90;;;;;;5096053;28;20389;-81
2023/10/27 07:09:17;;;;;;;2.10;0.68;;;11.90;99.90;;;;;;5096783;28;20024;-81
2023/10/27 07:11:43;;;;;;;2.20;0.50;;;11.90;99.90;;;;;;5096301;28;20024;-81
2023/10/27 07:14:10;;;;;;;2.25;0.63;;;11.90;99.90;;;;;;5096589;28;20066;-83
2023/10/27 07:16:36;;;;;;;2.50;0.60;;;11.90;99.90;;;;;;5097612;28;20111;-83
2023/10/27 07:19:01;;;;;;;1.75;0.40;;;11.90;99.90;;;;;;5096737;28;20055;-83
2023/10/27 07:21:27;;;;;;;0.38;0.38;;;11.90;99.90;;;;;;5096423;28;20034;-82
2023/10/27 07:23:53;;;;;;;1.40;0.60;;;11.90;99.90;;;;;;5095855;28;20087;-81
2023/10/27 07:26:20;;;;;;;1.52;0.38;;;11.80;99.90;;;;;;5096267;28;20028;-81
2023/10/27 07:28:45;;;;;;;0.88;0.50;;;11.80;99.90;;;;;;5095783;28;20358;-81
2023/10/27 07:31:11;;;;;;;0.82;0.60;;;11.90;99.90;;;;;;5096244;28;20020;-84
2023/10/27 07:33:40;;;;;;;1.95;0.52;;;12.00;99.90;;;;;;5096413;28;20081;-85
2023/10/27 07:36:06;;;;;;;1.40;0.70;;;12.00;99.90;;;;;;5102198;28;20059;-81
2023/10/27 07:38:34;;;;;;;2.78;1.10;;;12.10;99.90;;;;;;5108760;28;20036;-82
2023/10/27 07:41:00;;;;;;;1.90;0.60;;;12.10;99.90;;;;;;5098930;28;20028;-82
2023/10/27 07:43:25;;;;;;;1.63;0.57;;;12.10;99.90;;;;;;5112011;28;20078;-82
2023/10/27 07:45:54;;;;;;;2.72;0.63;;;12.20;99.90;;;;;;5101500;28;20077;-81
2023/10/27 07:48:20;;;;;;;2.45;0.60;;;12.20;99.90;;;;;;5104527;28;20465;-82
2023/10/27 07:50:45;;;;;;;1.48;0.50;;;12.20;99.90;;;;;;5110064;28;20033;-81
2023/10/27 07:53:11;;;;;;;1.88;0.70;;;12.20;99.90;;;;;;5097430;28;20119;-81
2023/10/27 07:55:37;;;;;;;1.35;0.40;;;12.20;99.90;;;;;;5101150;28;20495;-81
2023/10/27 07:58:04;;;;;;;1.42;0.43;;;12.20;99.90;;;;;;5106107;28;20473;-79
2023/10/27 08:00:33;;;;;;;1.23;0.40;;;12.30;99.90;;;;;;5107901;28;20030;-80
2023/10/27 08:02:59;;;;;;;1.67;0.50;;;12.30;99.90;;;;;;5114292;28;20047;-83
2023/10/27 08:05:25;;;;;;;0.30;0.30;;;12.30;99.90;;;;;;5099094;28;20102;-82
2023/10/27 08:07:50;;;;;;;1.95;0.38;;;12.30;99.90;;;;;;5107992;28;20024;-83
2023/10/27 08:10:16;;;;;;;2.53;0.50;;;12.30;99.90;;;;;;5105078;28;20139;-82
2023/10/27 08:12:43;;;;;;;1.25;0.32;;;12.30;99.90;;;;;;5101294;28;20042;-83
2023/10/27 08:15:09;;;;;;;0.88;0.45;;;12.30;99.90;;;;;;5096405;28;20473;-81
2023/10/27 08:17:36;;;;;;;0.60;0.20;;;12.30;99.90;;;;;;5110943;28;20122;-81
2023/10/27 08:20:02;;;;;;;1.27;0.40;;;12.20;99.90;;;;;;5102967;28;20107;-83
2023/10/27 08:22:28;;;;;;;1.65;0.28;;;12.20;99.90;;;;;;5102861;28;20027;-83
2023/10/27 08:24:53;;;;;;;1.13;0.20;;;12.20;99.90;;;;;;5110730;28;20475;-82
2023/10/27 08:27:19;;;;;;;1.30;0.38;;;12.30;99.90;;;;;;5098050;28;20028;-82
2023/10/27 08:29:45;;;;;;;0.55;0.20;;;12.30;99.90;;;;;;5110188;28;20026;-81
2023/10/27 08:32:11;;;;;;;1.25;0.40;;;12.30;99.90;;;;;;5104930;28;20020;-81
2023/10/27 08:34:37;;;;;;;0.85;0.82;;;12.30;99.90;;;;;;5094069;28;20038;-82
2023/10/27 08:37:03;;;;;;;1.27;0.10;;;12.30;99.90;;;;;;5110255;28;20350;-81
2023/10/27 08:39:32;;;;;;;1.48;0.30;;;12.40;99.90;;;;;;5098111;28;20361;-81
2023/10/27 08:41:58;;;;;;;0.47;0.20;;;12.40;99.90;;;;;;5114108;28;20028;-83
2023/10/27 08:44:24;;;;;;;0.43;0.20;;;12.40;99.90;;;;;;5114751;28;20035;-81
2023/10/27 08:46:50;;;;;;;0.20;0.20;;;12.40;99.90;;;;;;5100021;28;20115;-82
2023/10/27 08:49:16;;;;;;;0.68;0.20;;;12.40;99.90;;;;;;5111979;28;20027;-81
2023/10/27 08:51:42;;;;;;;0.73;0.25;;;12.40;99.90;;;;;;5099735;28;20024;-81
2023/10/27 08:54:08;;;;;;;1.48;0.32;;;12.40;99.90;;;;;;5105218;28;20032;-82
2023/10/27 08:56:34;;;;;;;0.25;0.20;;;12.40;99.90;;;;;;5094153;28;20384;-84
2023/10/27 08:59:00;;;;;;;1.40;0.20;;;12.50;99.90;;;;;;5111121;28;20038;-84
2023/10/27 09:01:26;;;;;;;1.35;0.40;;;12.50;99.90;;;;;;5097412;28;20585;-84
2023/10/27 09:04:15;;;;;;;1.05;0.22;;;12.50;99.90;;;;;;5106931;28;20024;-86
2023/10/27 09:06:41;;;;;;;1.73;0.20;;;12.50;99.90;;;;;;5107898;28;20027;-85
2023/10/27 09:09:09;;;;;;;2.75;0.52;;;12.50;99.90;;;;;;5096685;28;20481;-82
2023/10/27 09:11:43;;;;;;;1.20;0.22;;;12.60;99.90;;;;;;5108941;28;20031;-83
2023/10/27 09:14:30;;;;;;;0.63;0.30;;;12.50;99.90;;;;;;5099373;28;20388;-81
2023/10/27 09:17:08;;;;;;;0.82;0.28;;;12.60;99.90;;;;;;5092281;28;20032;-82
2023/10/27 09:19:34;;;;;;;0.90;0.38;;;12.60;99.90;;;;;;5080377;28;20035;-83
2023/10/27 09:22:01;;;;;;;1.60;0.30;;;12.70;99.90;;;;;;5093841;28;20376;-85
2023/10/27 09:24:29;;;;;;;2.40;0.30;;;12.80;99.90;;;;;;5113418;28;20053;-83
2023/10/27 09:26:56;;;;;;;1.33;0.30;;;12.80;99.90;;;;;;5093624;28;20028;-82
2023/10/27 09:29:22;;;;;;;0.95;0.30;;;12.80;99.90;;;;;;5093886;28;20031;-81
2023/10/27 09:31:50;;;;;;;1.75;0.30;;;13.00;99.90;;;;;;5086510;28;20024;-81
2023/10/27 09:34:24;;;;;;;0.30;0.30;;;13.00;99.90;;;;;;5090835;28;20469;-83
2023/10/27 09:36:58;;;;;;;0.38;0.20;;;13.00;99.90;;;;;;5085057;28;20082;-83
2023/10/27 09:39:25;;;;;;;2.35;0.73;;;12.90;99.90;;;;;;5099579;28;20024;-83
2023/10/27 09:42:03;;;;;;;0.57;0.30;;;12.90;99.90;;;;;;5091636;28;20474;-84
2023/10/27 09:45:09;;;;;;;1.02;0.52;;;13.00;99.90;;;;;;5085298;28;20572;-83
2023/10/27 09:47:43;;;;;;;2.70;0.35;;;13.00;99.90;;;;;;5023115;28;20124;-85
2023/10/27 09:50:22;;;;;;;1.15;0.50;;;13.00;99.90;;;;;;5089985;28;20064;-84
2023/10/27 09:52:49;;;;;;;5.13;0.40;;;13.00;99.90;;;;;;5098839;28;20028;-84
2023/10/27 09:55:17;;;;;;;2.00;0.73;;;13.00;99.90;;;;;;5083784;28;20449;-85
2023/10/27 09:57:46;;;;;;;0.65;0.30;;;13.00;99.90;;;;;;5104669;28;20033;-85
2023/10/27 10:00:25;;;;;;;1.90;0.60;;;13.00;99.90;;;;;;5092367;28;20078;-85
2023/10/27 10:02:50;;;;;;;2.50;0.52;;;13.00;99.90;;;;;;5086233;28;20450;-83
2023/10/27 10:05:17;;;;;;;1.52;0.40;;;12.90;99.90;;;;;;5091844;28;20048;-86
2023/10/27 10:07:44;;;;;;;2.17;0.50;;;12.90;99.90;;;;;;5088284;28;20028;-83
2023/10/27 10:10:21;;;;;;;0.50;0.40;;;12.80;99.90;;;;;;5079917;28;20024;-84
2023/10/27 10:13:08;;;;;;;2.33;0.57;;;12.80;99.90;;;;;;5072228;28;20032;-81
2023/10/27 10:15:34;;;;;;;1.33;0.50;;;12.80;99.90;;;;;;5071904;28;20043;-84
2023/10/27 10:18:02;;;;;;;5.20;0.60;;;12.80;99.90;;;;;;5092588;28;20028;-85
2023/10/27 10:20:47;;;;;;;1.08;0.40;;;12.80;99.90;;;;;;5092180;28;20461;-85
2023/10/27 10:23:14;;;;;;;1.65;0.40;;;12.80;99.90;;;;;;5091013;28;20032;-85
2023/10/27 10:25:57;;;;;;;2.75;0.52;;;12.80;99.90;;;;;;5092979;28;20028;-85
2023/10/27 10:28:24;;;;;;;2.95;0.63;;;12.90;99.90;;;;;;5093062;28;20429;-86
2023/10/27 10:31:11;;;;;;;2.60;0.47;;;13.00;99.90;;;;;;5091942;28;20024;-85
2023/10/27 10:33:46;;;;;;;2.55;0.68;;;13.10;99.90;;;;;;5092071;28;20028;-86
2023/10/27 10:36:24;;;;;;;1.65;0.52;;;13.20;99.90;;;;;;5053886;28;1077046;-86
2023/10/27 10:38:51;;;;;;;6.85;0.57;;;13.30;99.90;;;;;;5092648;28;20485;-86
2023/10/27 10:41:18;;;;;;;1.67;0.50;;;13.40;99.90;;;;;;5093957;28;20078;-86
2023/10/27 10:43:45;;;;;;;3.53;0.63;;;13.50;99.90;;;;;;5094069;28;20020;-86
2023/10/27 10:46:12;;;;;;;3.72;0.60;;;13.60;99.90;;;;;;5093806;28;20127;-85
2023/10/27 10:48:45;;;;;;;4.53;0.90;;;13.80;99.90;;;;;;5094212;28;20108;-87
2023/10/27 10:51:25;;;;;;;0.95;0.50;;;13.90;99.90;;;;;;5092691;28;20024;-86
2023/10/27 10:53:54;;;;;;;3.80;0.60;;;14.00;99.90;;;;;;5093602;28;20028;-86
2023/10/27 10:56:20;;;;;;;6.07;0.77;;;14.00;99.90;;;;;;5093099;28;20094;-87
2023/10/27 10:58:46;;;;;;;2.40;0.85;;;14.00;99.90;;;;;;5092878;28;20020;-87
2023/10/27 11:01:19;;;;;;;4.43;0.80;;;14.00;99.90;;;;;;5092238;28;20028;-86
2023/10/27 11:03:50;;;;;;;5.25;0.90;;;14.10;99.90;;;;;;5092799;28;20062;-86
2023/10/27 11:06:19;;;;;;;3.75;0.70;;;14.00;99.90;;;;;;5094529;28;20032;-86
2023/10/27 11:08:46;;;;;;;3.08;0.60;;;14.00;99.90;;;;;;5093111;28;20124;-86
2023/10/27 11:11:18;;;;;;;1.92;0.70;;;13.90;99.90;;;;;;5095217;28;20020;-86
2023/10/27 11:13:52;;;;;;;7.65;0.75;;;13.90;99.90;;;;;;5094690;28;20028;-86
2023/10/27 11:16:23;;;;;;;3.53;0.73;;;13.80;99.90;;;;;;5092862;28;20028;-87
2023/10/27 11:18:59;;;;;;;3.22;0.70;;;13.80;99.90;;;;;;5092905;28;20130;-86
2023/10/27 11:21:27;;;;;;;1.30;0.63;;;13.80;99.90;;;;;;5092964;28;20040;-87
2023/10/27 11:23:54;;;;;;;3.63;0.68;;;13.90;99.90;;;;;;5092287;28;20132;-85
2023/10/27 11:26:22;;;;;;;6.50;0.63;;;13.80;99.90;;;;;;5092750;28;20028;-87
2023/10/27 11:28:48;;;;;;;3.95;1.00;;;13.80;99.90;;;;;;5093528;28;20110;-88
2023/10/27 11:31:26;;;;;;;2.17;0.47;;;13.70;99.90;;;;;;5091921;28;20542;-87
2023/10/27 11:34:02;;;;;;;2.35;0.55;;;13.60;99.90;;;;;;5091873;28;20545;-82
2023/10/27 11:36:32;;;;;;;1.75;0.50;;;13.40;99.90;;;;;;5095936;28;20044;-87
2023/10/27 11:39:28;;;;;;;3.10;1.10;;;13.30;99.90;;;;;;5095826;28;20032;-86
2023/10/27 11:42:00;;;;;;;2.63;0.50;;;13.20;99.90;;;;;;5095161;28;20576;-85
2023/10/27 11:44:26;;;;;;;4.53;0.60;;;13.10;99.90;;;;;;5096306;28;20028;-87
2023/10/27 11:46:57;;;;;;;3.60;0.40;;;13.00;99.90;;;;;;5095765;28;20035;-82
2023/10/27 11:49:23;;;;;;;4.07;0.60;;;12.80;99.90;;;;;;5096161;28;20469;-85
2023/10/27 11:51:52;;;;;;;2.28;0.40;;;12.70;99.90;;;;;;5096897;28;20020;-84
2023/10/27 11:54:18;;;;;;;2.17;0.70;;;12.60;99.90;;;;;;5095913;28;20054;-86
2023/10/27 11:56:45;;;;;;;4.93;0.70;;;12.60;99.90;;;;;;5096876;28;20020;-87
2023/10/27 11:59:10;;;;;;;2.13;0.43;;;12.70;99.90;;;;;;5095303;28;20024;-86
2023/10/27 12:01:37;;;;;;;0.95;0.47;;;12.80;99.90;;;;;;5096724;28;20418;-86
2023/10/27 12:04:04;;;;;;;1.38;0.45;;;12.90;99.90;;;;;;5094771;28;20032;-87
2023/10/27 12:06:30;;;;;;;2.38;0.60;;;13.00;99.90;;;;;;5096450;28;20024;-85
2023/10/27 12:08:56;;;;;;;3.05;0.70;;;13.10;99.90;;;;;;5096095;28;20024;-86
2023/10/27 12:11:21;;;;;;;3.60;0.85;;;13.00;99.90;;;;;;5095612;28;20020;-86
2023/10/27 12:13:47;;;;;;;9.02;2.05;;;13.00;99.90;;;;;;5095503;28;20123;-87
2023/10/27 12:16:13;;;;;;;2.97;0.90;;;13.10;99.90;;;;;;5095759;28;20366;-86
2023/10/27 12:18:39;;;;;;;2.10;0.80;;;13.10;99.90;;;;;;5097476;28;20059;-86
2023/10/27 12:21:05;;;;;;;3.65;0.70;;;13.30;99.90;;;;;;5097580;28;20387;-87
2023/10/27 12:23:32;;;;;;;3.40;1.00;;;13.70;99.90;;;;;;5098380;28;20024;-87
2023/10/27 12:26:01;;;;;;;3.83;0.70;;;13.70;99.90;;;;;;5096841;28;20024;-86
2023/10/27 12:28:27;;;;;;;2.47;0.73;;;13.70;99.90;;;;;;5096059;28;20028;-86
2023/10/27 12:30:54;;;;;;;3.70;0.90;;;13.90;99.90;;;;;;5096185;28;20028;-87
2023/10/27 12:33:21;;;;;;;1.67;0.52;;;14.30;99.90;;;;;;5095724;28;20028;-85
2023/10/27 12:35:50;;;;;;;1.73;0.57;;;14.90;99.90;;;;;;5095229;28;20100;-86
2023/10/27 12:38:20;;;;;;;4.57;0.63;;;15.00;99.90;;;;;;5095316;28;20036;-86
2023/10/27 12:40:47;;;;;;;3.50;0.50;;;14.60;99.90;;;;;;5096918;28;20027;-86
2023/10/27 12:43:14;;;;;;;2.65;0.68;;;14.40;99.90;;;;;;5094529;28;20031;-86
2023/10/27 12:45:40;;;;;;;2.33;0.60;;;14.30;99.90;;;;;;5094641;28;20077;-86
2023/10/27 12:48:06;;;;;;;3.50;0.50;;;14.20;99.90;;;;;;5094513;28;20032;-85